sensor_id;sensor_type;location;lat;lon;timestamp;P1;durP1;ratioP1;P2;durP2;ratioP2
49015;SDS011;34830;44.064;12.566;2023-03-12T00:01:38;29.17;;;10.48;;
49015;SDS011;34830;44.064;12.566;2023-03-12T00:04:04;23.77;;;8.43;;
49015;SDS011;34830;44.064;12.566;2023-03-12T00:06:30;24.50;;;8.45;;
49015;SDS011;34830;44.064;12.566;2023-03-12T00:08:57;23.63;;;10.23;;
49015;SDS011;34830;44.064;12.566;2023-03-12T00:11:26;25.10;;;9.35;;
49015;SDS011;34830;44.064;12.566;2023-03-12T00:13:54;26.38;;;9.70;;
49015;SDS011;34830;44.064;12.566;2023-03-12T00:16:22;20.52;;;8.45;;
49015;SDS011;34830;44.064;12.566;2023-03-12T00:18:49;22.92;;;7.95;;
49015;SDS011;34830;44.064;12.566;2023-03-12T00:21:15;26.17;;;8.07;;
49015;SDS011;34830;44.064;12.566;2023-03-12T00:23:42;27.08;;;8.82;;
49015;SDS011;34830;44.064;12.566;2023-03-12T00:26:09;22.05;;;9.32;;
49015;SDS011;34830;44.064;12.566;2023-03-12T00:28:37;25.20;;;10.45;;
49015;SDS011;34830;44.064;12.566;2023-03-12T00:31:11;18.92;;;8.30;;
49015;SDS011;34830;44.064;12.566;2023-03-12T00:33:46;23.90;;;7.85;;
49015;SDS011;34830;44.064;12.566;2023-03-12T00:36:17;25.75;;;9.20;;
49015;SDS011;34830;44.064;12.566;2023-03-12T00:38:43;23.73;;;8.02;;
49015;SDS011;34830;44.064;12.566;2023-03-12T00:41:10;24.40;;;8.05;;
49015;SDS011;34830;44.064;12.566;2023-03-12T00:43:36;37.03;;;7.53;;
49015;SDS011;34830;44.064;12.566;2023-03-12T00:46:02;21.33;;;8.15;;
49015;SDS011;34830;44.064;12.566;2023-03-12T00:48:28;21.95;;;8.18;;
49015;SDS011;34830;44.064;12.566;2023-03-12T00:50:54;19.98;;;7.40;;
49015;SDS011;34830;44.064;12.566;2023-03-12T00:53:21;21.63;;;7.00;;
49015;SDS011;34830;44.064;12.566;2023-03-12T00:55:47;23.50;;;7.60;;
49015;SDS011;34830;44.064;12.566;2023-03-12T00:58:13;26.75;;;8.02;;
49015;SDS011;34830;44.064;12.566;2023-03-12T01:00:39;29.80;;;8.63;;
49015;SDS011;34830;44.064;12.566;2023-03-12T01:03:05;21.05;;;6.82;;
49015;SDS011;34830;44.064;12.566;2023-03-12T01:05:32;21.42;;;8.18;;
49015;SDS011;34830;44.064;12.566;2023-03-12T01:08:03;20.45;;;7.18;;
49015;SDS011;34830;44.064;12.566;2023-03-12T01:10:29;30.08;;;8.25;;
49015;SDS011;34830;44.064;12.566;2023-03-12T01:12:56;18.63;;;6.88;;
49015;SDS011;34830;44.064;12.566;2023-03-12T01:15:22;22.08;;;9.18;;
49015;SDS011;34830;44.064;12.566;2023-03-12T01:17:48;23.85;;;8.13;;
49015;SDS011;34830;44.064;12.566;2023-03-12T01:20:14;17.92;;;6.95;;
49015;SDS011;34830;44.064;12.566;2023-03-12T01:22:40;30.48;;;7.32;;
49015;SDS011;34830;44.064;12.566;2023-03-12T01:25:07;23.95;;;7.57;;
49015;SDS011;34830;44.064;12.566;2023-03-12T01:27:33;20.73;;;6.72;;
49015;SDS011;34830;44.064;12.566;2023-03-12T01:29:59;27.23;;;7.35;;
49015;SDS011;34830;44.064;12.566;2023-03-12T01:32:25;22.45;;;6.30;;
49015;SDS011;34830;44.064;12.566;2023-03-12T01:34:51;27.70;;;7.47;;
49015;SDS011;34830;44.064;12.566;2023-03-12T01:37:17;20.67;;;6.90;;
49015;SDS011;34830;44.064;12.566;2023-03-12T01:39:44;23.30;;;6.75;;
49015;SDS011;34830;44.064;12.566;2023-03-12T01:42:10;21.52;;;6.22;;
49015;SDS011;34830;44.064;12.566;2023-03-12T01:47:19;22.92;;;6.68;;
49015;SDS011;34830;44.064;12.566;2023-03-12T01:49:45;23.13;;;7.07;;
49015;SDS011;34830;44.064;12.566;2023-03-12T01:52:14;28.40;;;7.32;;
49015;SDS011;34830;44.064;12.566;2023-03-12T01:55:06;20.05;;;6.63;;
49015;SDS011;34830;44.064;12.566;2023-03-12T01:57:37;18.38;;;6.22;;
49015;SDS011;34830;44.064;12.566;2023-03-12T02:02:42;22.92;;;7.82;;
49015;SDS011;34830;44.064;12.566;2023-03-12T02:05:16;20.08;;;6.70;;
49015;SDS011;34830;44.064;12.566;2023-03-12T02:07:46;24.30;;;7.90;;
49015;SDS011;34830;44.064;12.566;2023-03-12T02:10:12;24.77;;;6.35;;
49015;SDS011;34830;44.064;12.566;2023-03-12T02:12:38;27.38;;;7.60;;
49015;SDS011;34830;44.064;12.566;2023-03-12T02:15:04;23.50;;;5.97;;
49015;SDS011;34830;44.064;12.566;2023-03-12T02:17:32;25.98;;;5.80;;
49015;SDS011;34830;44.064;12.566;2023-03-12T02:22:46;18.55;;;4.38;;
49015;SDS011;34830;44.064;12.566;2023-03-12T02:28:06;15.55;;;3.20;;
49015;SDS011;34830;44.064;12.566;2023-03-12T02:30:35;22.50;;;3.42;;
49015;SDS011;34830;44.064;12.566;2023-03-12T02:33:04;26.80;;;3.55;;
49015;SDS011;34830;44.064;12.566;2023-03-12T02:35:31;18.23;;;3.58;;
49015;SDS011;34830;44.064;12.566;2023-03-12T02:37:58;24.80;;;3.28;;
49015;SDS011;34830;44.064;12.566;2023-03-12T02:40:33;22.73;;;3.97;;
49015;SDS011;34830;44.064;12.566;2023-03-12T02:43:01;23.20;;;4.22;;
49015;SDS011;34830;44.064;12.566;2023-03-12T02:45:28;15.73;;;2.30;;
49015;SDS011;34830;44.064;12.566;2023-03-12T02:47:54;16.17;;;2.40;;
49015;SDS011;34830;44.064;12.566;2023-03-12T02:50:20;19.63;;;2.67;;
49015;SDS011;34830;44.064;12.566;2023-03-12T02:52:47;17.73;;;2.30;;
49015;SDS011;34830;44.064;12.566;2023-03-12T02:55:13;19.88;;;3.60;;
49015;SDS011;34830;44.064;12.566;2023-03-12T02:57:39;12.38;;;3.55;;
49015;SDS011;34830;44.064;12.566;2023-03-12T03:00:10;18.98;;;2.60;;
49015;SDS011;34830;44.064;12.566;2023-03-12T03:02:47;21.92;;;2.72;;
49015;SDS011;34830;44.064;12.566;2023-03-12T03:05:14;15.05;;;2.38;;
49015;SDS011;34830;44.064;12.566;2023-03-12T03:07:40;18.25;;;2.83;;
49015;SDS011;34830;44.064;12.566;2023-03-12T03:10:06;25.10;;;3.90;;
49015;SDS011;34830;44.064;12.566;2023-03-12T03:12:33;17.17;;;4.22;;
49015;SDS011;34830;44.064;12.566;2023-03-12T03:15:01;23.95;;;3.78;;
49015;SDS011;34830;44.064;12.566;2023-03-12T03:17:27;18.80;;;2.60;;
49015;SDS011;34830;44.064;12.566;2023-03-12T03:19:54;17.23;;;3.55;;
49015;SDS011;34830;44.064;12.566;2023-03-12T03:22:20;19.25;;;3.38;;
49015;SDS011;34830;44.064;12.566;2023-03-12T03:24:47;26.58;;;3.75;;
49015;SDS011;34830;44.064;12.566;2023-03-12T03:27:14;26.60;;;3.88;;
49015;SDS011;34830;44.064;12.566;2023-03-12T03:29:40;20.42;;;4.18;;
49015;SDS011;34830;44.064;12.566;2023-03-12T03:32:06;22.17;;;3.17;;
49015;SDS011;34830;44.064;12.566;2023-03-12T03:34:33;18.80;;;2.55;;
49015;SDS011;34830;44.064;12.566;2023-03-12T03:36:59;22.52;;;3.20;;
49015;SDS011;34830;44.064;12.566;2023-03-12T03:39:27;17.88;;;3.13;;
49015;SDS011;34830;44.064;12.566;2023-03-12T03:41:53;21.08;;;4.22;;
49015;SDS011;34830;44.064;12.566;2023-03-12T03:44:24;22.52;;;3.20;;
49015;SDS011;34830;44.064;12.566;2023-03-12T03:46:50;14.15;;;3.25;;
49015;SDS011;34830;44.064;12.566;2023-03-12T03:49:16;13.93;;;2.92;;
49015;SDS011;34830;44.064;12.566;2023-03-12T03:51:42;16.90;;;3.40;;
49015;SDS011;34830;44.064;12.566;2023-03-12T03:54:12;20.45;;;3.25;;
49015;SDS011;34830;44.064;12.566;2023-03-12T03:56:39;24.80;;;3.08;;
49015;SDS011;34830;44.064;12.566;2023-03-12T03:59:05;15.82;;;3.20;;
49015;SDS011;34830;44.064;12.566;2023-03-12T04:01:34;22.42;;;4.25;;
49015;SDS011;34830;44.064;12.566;2023-03-12T04:04:01;16.80;;;2.42;;
49015;SDS011;34830;44.064;12.566;2023-03-12T04:06:30;20.38;;;3.08;;
49015;SDS011;34830;44.064;12.566;2023-03-12T04:08:57;21.35;;;3.10;;
49015;SDS011;34830;44.064;12.566;2023-03-12T04:11:24;18.27;;;3.95;;
49015;SDS011;34830;44.064;12.566;2023-03-12T04:13:51;15.15;;;3.42;;
49015;SDS011;34830;44.064;12.566;2023-03-12T04:16:21;21.98;;;4.10;;
49015;SDS011;34830;44.064;12.566;2023-03-12T04:18:50;17.55;;;3.97;;
49015;SDS011;34830;44.064;12.566;2023-03-12T04:21:17;15.95;;;4.43;;
49015;SDS011;34830;44.064;12.566;2023-03-12T04:23:43;14.93;;;2.67;;
49015;SDS011;34830;44.064;12.566;2023-03-12T04:26:11;23.38;;;3.45;;
49015;SDS011;34830;44.064;12.566;2023-03-12T04:28:38;16.05;;;2.72;;
49015;SDS011;34830;44.064;12.566;2023-03-12T04:31:06;32.85;;;4.40;;
49015;SDS011;34830;44.064;12.566;2023-03-12T04:33:39;17.50;;;2.60;;
49015;SDS011;34830;44.064;12.566;2023-03-12T04:36:07;19.95;;;3.05;;
49015;SDS011;34830;44.064;12.566;2023-03-12T04:38:35;14.15;;;3.78;;
49015;SDS011;34830;44.064;12.566;2023-03-12T04:41:03;14.95;;;4.13;;
49015;SDS011;34830;44.064;12.566;2023-03-12T04:43:30;23.98;;;2.97;;
49015;SDS011;34830;44.064;12.566;2023-03-12T04:45:57;14.98;;;3.20;;
49015;SDS011;34830;44.064;12.566;2023-03-12T04:48:24;17.00;;;3.58;;
49015;SDS011;34830;44.064;12.566;2023-03-12T04:50:51;16.73;;;3.25;;
49015;SDS011;34830;44.064;12.566;2023-03-12T04:53:18;29.92;;;3.60;;
49015;SDS011;34830;44.064;12.566;2023-03-12T04:55:46;12.57;;;3.00;;
49015;SDS011;34830;44.064;12.566;2023-03-12T04:58:14;18.48;;;3.97;;
49015;SDS011;34830;44.064;12.566;2023-03-12T05:00:40;15.55;;;2.90;;
49015;SDS011;34830;44.064;12.566;2023-03-12T05:03:07;12.05;;;3.17;;
49015;SDS011;34830;44.064;12.566;2023-03-12T05:05:33;20.58;;;4.40;;
49015;SDS011;34830;44.064;12.566;2023-03-12T05:08:01;15.43;;;3.55;;
49015;SDS011;34830;44.064;12.566;2023-03-12T05:10:28;18.65;;;2.72;;
49015;SDS011;34830;44.064;12.566;2023-03-12T05:12:55;15.07;;;2.85;;
49015;SDS011;34830;44.064;12.566;2023-03-12T05:15:22;15.77;;;2.80;;
49015;SDS011;34830;44.064;12.566;2023-03-12T05:17:48;26.25;;;3.17;;
49015;SDS011;34830;44.064;12.566;2023-03-12T05:20:14;14.85;;;2.83;;
49015;SDS011;34830;44.064;12.566;2023-03-12T05:22:44;16.85;;;3.60;;
49015;SDS011;34830;44.064;12.566;2023-03-12T05:25:10;19.38;;;2.90;;
49015;SDS011;34830;44.064;12.566;2023-03-12T05:27:37;19.45;;;3.25;;
49015;SDS011;34830;44.064;12.566;2023-03-12T05:30:04;27.20;;;3.92;;
49015;SDS011;34830;44.064;12.566;2023-03-12T05:32:31;14.00;;;2.80;;
49015;SDS011;34830;44.064;12.566;2023-03-12T05:34:57;20.67;;;2.58;;
49015;SDS011;34830;44.064;12.566;2023-03-12T05:37:24;22.65;;;4.15;;
49015;SDS011;34830;44.064;12.566;2023-03-12T05:39:52;15.25;;;2.55;;
49015;SDS011;34830;44.064;12.566;2023-03-12T05:42:18;29.65;;;3.67;;
49015;SDS011;34830;44.064;12.566;2023-03-12T05:44:45;19.73;;;2.60;;
49015;SDS011;34830;44.064;12.566;2023-03-12T05:47:15;18.20;;;3.33;;
49015;SDS011;34830;44.064;12.566;2023-03-12T05:49:42;17.25;;;2.88;;
49015;SDS011;34830;44.064;12.566;2023-03-12T05:52:09;20.15;;;4.40;;
49015;SDS011;34830;44.064;12.566;2023-03-12T05:54:36;14.85;;;4.05;;
49015;SDS011;34830;44.064;12.566;2023-03-12T05:57:04;17.75;;;3.28;;
49015;SDS011;34830;44.064;12.566;2023-03-12T05:59:30;15.52;;;2.53;;
49015;SDS011;34830;44.064;12.566;2023-03-12T06:01:57;14.82;;;3.22;;
49015;SDS011;34830;44.064;12.566;2023-03-12T06:04:23;22.08;;;2.97;;
49015;SDS011;34830;44.064;12.566;2023-03-12T06:06:51;22.20;;;2.35;;
49015;SDS011;34830;44.064;12.566;2023-03-12T06:09:17;15.20;;;3.38;;
49015;SDS011;34830;44.064;12.566;2023-03-12T06:11:43;14.23;;;3.33;;
49015;SDS011;34830;44.064;12.566;2023-03-12T06:14:09;16.10;;;2.47;;
49015;SDS011;34830;44.064;12.566;2023-03-12T06:16:36;18.17;;;2.55;;
49015;SDS011;34830;44.064;12.566;2023-03-12T06:19:02;22.20;;;3.22;;
49015;SDS011;34830;44.064;12.566;2023-03-12T06:21:32;12.07;;;3.20;;
49015;SDS011;34830;44.064;12.566;2023-03-12T06:24:00;15.90;;;2.85;;
49015;SDS011;34830;44.064;12.566;2023-03-12T06:26:37;9.07;;;1.83;;
49015;SDS011;34830;44.064;12.566;2023-03-12T06:29:04;16.02;;;2.15;;
49015;SDS011;34830;44.064;12.566;2023-03-12T06:31:30;17.63;;;2.50;;
49015;SDS011;34830;44.064;12.566;2023-03-12T06:33:56;17.58;;;3.00;;
49015;SDS011;34830;44.064;12.566;2023-03-12T06:36:22;13.00;;;2.45;;
49015;SDS011;34830;44.064;12.566;2023-03-12T06:38:49;15.50;;;2.97;;
49015;SDS011;34830;44.064;12.566;2023-03-12T06:41:16;15.73;;;2.70;;
49015;SDS011;34830;44.064;12.566;2023-03-12T06:43:43;16.10;;;2.80;;
49015;SDS011;34830;44.064;12.566;2023-03-12T06:46:14;19.20;;;2.90;;
49015;SDS011;34830;44.064;12.566;2023-03-12T06:48:42;15.75;;;2.70;;
49015;SDS011;34830;44.064;12.566;2023-03-12T06:51:09;13.23;;;3.08;;
49015;SDS011;34830;44.064;12.566;2023-03-12T06:53:37;15.23;;;2.78;;
49015;SDS011;34830;44.064;12.566;2023-03-12T06:56:03;15.70;;;2.33;;
49015;SDS011;34830;44.064;12.566;2023-03-12T06:58:30;17.42;;;2.33;;
49015;SDS011;34830;44.064;12.566;2023-03-12T07:00:56;18.13;;;2.42;;
49015;SDS011;34830;44.064;12.566;2023-03-12T07:03:22;12.98;;;2.05;;
49015;SDS011;34830;44.064;12.566;2023-03-12T07:05:49;12.57;;;2.10;;
49015;SDS011;34830;44.064;12.566;2023-03-12T07:08:16;11.82;;;1.95;;
49015;SDS011;34830;44.064;12.566;2023-03-12T07:10:43;10.18;;;2.15;;
49015;SDS011;34830;44.064;12.566;2023-03-12T07:13:09;10.52;;;1.83;;
49015;SDS011;34830;44.064;12.566;2023-03-12T07:15:36;14.55;;;2.50;;
49015;SDS011;34830;44.064;12.566;2023-03-12T07:18:03;12.98;;;2.25;;
49015;SDS011;34830;44.064;12.566;2023-03-12T07:20:30;12.00;;;1.98;;
49015;SDS011;34830;44.064;12.566;2023-03-12T07:22:57;13.30;;;2.42;;
49015;SDS011;34830;44.064;12.566;2023-03-12T07:25:24;16.80;;;2.13;;
49015;SDS011;34830;44.064;12.566;2023-03-12T07:27:50;17.27;;;2.28;;
49015;SDS011;34830;44.064;12.566;2023-03-12T07:30:16;8.45;;;1.95;;
49015;SDS011;34830;44.064;12.566;2023-03-12T07:32:42;9.52;;;2.17;;
49015;SDS011;34830;44.064;12.566;2023-03-12T07:35:09;15.50;;;3.60;;
49015;SDS011;34830;44.064;12.566;2023-03-12T07:37:35;8.45;;;1.83;;
49015;SDS011;34830;44.064;12.566;2023-03-12T07:40:01;14.75;;;3.47;;
49015;SDS011;34830;44.064;12.566;2023-03-12T07:42:32;13.82;;;2.22;;
49015;SDS011;34830;44.064;12.566;2023-03-12T07:44:59;9.27;;;2.20;;
49015;SDS011;34830;44.064;12.566;2023-03-12T07:47:25;14.00;;;2.67;;
49015;SDS011;34830;44.064;12.566;2023-03-12T07:49:51;6.90;;;2.20;;
49015;SDS011;34830;44.064;12.566;2023-03-12T07:52:18;9.90;;;1.90;;
49015;SDS011;34830;44.064;12.566;2023-03-12T07:54:44;9.85;;;2.10;;
49015;SDS011;34830;44.064;12.566;2023-03-12T07:57:11;10.27;;;2.30;;
49015;SDS011;34830;44.064;12.566;2023-03-12T07:59:37;12.32;;;1.90;;
49015;SDS011;34830;44.064;12.566;2023-03-12T08:02:04;11.68;;;2.40;;
49015;SDS011;34830;44.064;12.566;2023-03-12T08:04:30;12.93;;;2.53;;
49015;SDS011;34830;44.064;12.566;2023-03-12T08:06:56;12.38;;;2.10;;
49015;SDS011;34830;44.064;12.566;2023-03-12T08:09:22;12.43;;;2.80;;
49015;SDS011;34830;44.064;12.566;2023-03-12T08:11:48;9.95;;;2.60;;
49015;SDS011;34830;44.064;12.566;2023-03-12T08:14:15;13.50;;;1.98;;
49015;SDS011;34830;44.064;12.566;2023-03-12T08:16:41;10.65;;;2.17;;
49015;SDS011;34830;44.064;12.566;2023-03-12T08:19:07;16.55;;;2.15;;
49015;SDS011;34830;44.064;12.566;2023-03-12T08:21:33;8.35;;;1.85;;
49015;SDS011;34830;44.064;12.566;2023-03-12T08:23:59;10.85;;;1.98;;
49015;SDS011;34830;44.064;12.566;2023-03-12T08:26:25;11.35;;;1.77;;
49015;SDS011;34830;44.064;12.566;2023-03-12T08:28:52;17.08;;;1.90;;
49015;SDS011;34830;44.064;12.566;2023-03-12T08:31:18;7.35;;;1.90;;
49015;SDS011;34830;44.064;12.566;2023-03-12T08:33:44;9.85;;;2.33;;
49015;SDS011;34830;44.064;12.566;2023-03-12T08:36:11;11.85;;;2.33;;
49015;SDS011;34830;44.064;12.566;2023-03-12T08:38:38;11.60;;;2.75;;
49015;SDS011;34830;44.064;12.566;2023-03-12T08:41:04;7.38;;;1.67;;
49015;SDS011;34830;44.064;12.566;2023-03-12T08:43:30;10.88;;;1.90;;
49015;SDS011;34830;44.064;12.566;2023-03-12T08:45:57;10.23;;;1.85;;
49015;SDS011;34830;44.064;12.566;2023-03-12T08:48:24;12.43;;;2.05;;
49015;SDS011;34830;44.064;12.566;2023-03-12T08:50:53;6.47;;;1.60;;
49015;SDS011;34830;44.064;12.566;2023-03-12T08:53:23;12.18;;;2.42;;
49015;SDS011;34830;44.064;12.566;2023-03-12T08:55:53;11.50;;;1.73;;
49015;SDS011;34830;44.064;12.566;2023-03-12T08:58:20;8.05;;;1.63;;
49015;SDS011;34830;44.064;12.566;2023-03-12T09:00:47;14.50;;;2.22;;
49015;SDS011;34830;44.064;12.566;2023-03-12T09:03:13;6.80;;;1.98;;
49015;SDS011;34830;44.064;12.566;2023-03-12T09:05:40;8.75;;;1.55;;
49015;SDS011;34830;44.064;12.566;2023-03-12T09:08:07;6.65;;;1.80;;
49015;SDS011;34830;44.064;12.566;2023-03-12T09:10:33;7.25;;;1.90;;
49015;SDS011;34830;44.064;12.566;2023-03-12T09:13:02;12.75;;;2.90;;
49015;SDS011;34830;44.064;12.566;2023-03-12T09:15:28;10.35;;;1.85;;
49015;SDS011;34830;44.064;12.566;2023-03-12T09:17:54;6.40;;;1.48;;
49015;SDS011;34830;44.064;12.566;2023-03-12T09:20:21;14.50;;;2.45;;
49015;SDS011;34830;44.064;12.566;2023-03-12T09:22:47;15.20;;;3.00;;
49015;SDS011;34830;44.064;12.566;2023-03-12T09:25:14;10.75;;;2.25;;
49015;SDS011;34830;44.064;12.566;2023-03-12T09:27:45;6.18;;;1.50;;
49015;SDS011;34830;44.064;12.566;2023-03-12T09:30:13;5.55;;;1.45;;
49015;SDS011;34830;44.064;12.566;2023-03-12T09:32:40;7.32;;;1.70;;
49015;SDS011;34830;44.064;12.566;2023-03-12T09:35:07;8.77;;;2.00;;
49015;SDS011;34830;44.064;12.566;2023-03-12T09:37:33;9.77;;;1.60;;
49015;SDS011;34830;44.064;12.566;2023-03-12T09:40:00;8.27;;;1.63;;
49015;SDS011;34830;44.064;12.566;2023-03-12T09:42:34;10.90;;;2.38;;
49015;SDS011;34830;44.064;12.566;2023-03-12T09:45:05;11.30;;;2.17;;
49015;SDS011;34830;44.064;12.566;2023-03-12T09:47:34;13.75;;;2.17;;
49015;SDS011;34830;44.064;12.566;2023-03-12T09:52:39;11.90;;;2.28;;
49015;SDS011;34830;44.064;12.566;2023-03-12T09:55:30;10.25;;;1.60;;
49015;SDS011;34830;44.064;12.566;2023-03-12T09:58:01;7.43;;;1.70;;
49015;SDS011;34830;44.064;12.566;2023-03-12T10:00:32;10.15;;;1.80;;
49015;SDS011;34830;44.064;12.566;2023-03-12T10:18:56;6.90;;;2.03;;
49015;SDS011;34830;44.064;12.566;2023-03-12T10:21:34;6.65;;;1.60;;
49015;SDS011;34830;44.064;12.566;2023-03-12T10:24:18;12.30;;;2.40;;
49015;SDS011;34830;44.064;12.566;2023-03-12T10:27:09;8.00;;;1.75;;
49015;SDS011;34830;44.064;12.566;2023-03-12T10:29:38;13.32;;;1.83;;
49015;SDS011;34830;44.064;12.566;2023-03-12T10:34:36;10.18;;;2.33;;
49015;SDS011;34830;44.064;12.566;2023-03-12T10:39:49;10.35;;;1.70;;
49015;SDS011;34830;44.064;12.566;2023-03-12T10:42:17;10.65;;;1.80;;
49015;SDS011;34830;44.064;12.566;2023-03-12T10:44:46;6.30;;;1.83;;
49015;SDS011;34830;44.064;12.566;2023-03-12T10:52:37;12.90;;;2.10;;
49015;SDS011;34830;44.064;12.566;2023-03-12T10:55:37;10.00;;;1.77;;
49015;SDS011;34830;44.064;12.566;2023-03-12T10:57:56;7.53;;;1.25;;
49015;SDS011;34830;44.064;12.566;2023-03-12T11:00:23;9.35;;;1.30;;
49015;SDS011;34830;44.064;12.566;2023-03-12T11:03:34;11.02;;;2.15;;
49015;SDS011;34830;44.064;12.566;2023-03-12T11:05:46;10.07;;;1.73;;
49015;SDS011;34830;44.064;12.566;2023-03-12T11:08:27;8.32;;;1.15;;
49015;SDS011;34830;44.064;12.566;2023-03-12T11:10:57;12.70;;;1.30;;
49015;SDS011;34830;44.064;12.566;2023-03-12T11:13:29;5.50;;;1.33;;
49015;SDS011;34830;44.064;12.566;2023-03-12T11:15:56;5.35;;;1.25;;
49015;SDS011;34830;44.064;12.566;2023-03-12T11:18:25;8.27;;;1.60;;
49015;SDS011;34830;44.064;12.566;2023-03-12T11:20:53;8.00;;;1.80;;
49015;SDS011;34830;44.064;12.566;2023-03-12T11:23:25;12.10;;;2.20;;
49015;SDS011;34830;44.064;12.566;2023-03-12T11:26:20;11.65;;;1.40;;
49015;SDS011;34830;44.064;12.566;2023-03-12T11:28:48;8.18;;;1.52;;
49015;SDS011;34830;44.064;12.566;2023-03-12T11:34:07;13.35;;;1.83;;
49015;SDS011;34830;44.064;12.566;2023-03-12T12:02:29;6.88;;;1.35;;
49015;SDS011;34830;44.064;12.566;2023-03-12T12:04:51;6.95;;;1.70;;
49015;SDS011;34830;44.064;12.566;2023-03-12T12:12:38;9.27;;;1.80;;
49015;SDS011;34830;44.064;12.566;2023-03-12T12:26:37;8.98;;;2.65;;
49015;SDS011;34830;44.064;12.566;2023-03-12T12:31:57;8.68;;;1.83;;
49015;SDS011;34830;44.064;12.566;2023-03-12T12:37:17;12.52;;;3.78;;
49015;SDS011;34830;44.064;12.566;2023-03-12T12:40:34;17.38;;;4.22;;
49015;SDS011;34830;44.064;12.566;2023-03-12T12:45:24;10.95;;;2.42;;
49015;SDS011;34830;44.064;12.566;2023-03-12T12:47:53;10.27;;;1.60;;
49015;SDS011;34830;44.064;12.566;2023-03-12T12:50:23;7.97;;;1.30;;
49015;SDS011;34830;44.064;12.566;2023-03-12T12:52:59;11.48;;;1.90;;
49015;SDS011;34830;44.064;12.566;2023-03-12T12:55:48;8.50;;;1.63;;
49015;SDS011;34830;44.064;12.566;2023-03-12T13:00:50;8.07;;;1.73;;
49015;SDS011;34830;44.064;12.566;2023-03-12T13:03:37;4.95;;;1.65;;
49015;SDS011;34830;44.064;12.566;2023-03-12T13:06:04;6.65;;;1.48;;
49015;SDS011;34830;44.064;12.566;2023-03-12T13:16:35;10.93;;;2.13;;
49015;SDS011;34830;44.064;12.566;2023-03-12T13:27:38;8.02;;;1.40;;
49015;SDS011;34830;44.064;12.566;2023-03-12T13:30:53;6.97;;;1.73;;
49015;SDS011;34830;44.064;12.566;2023-03-12T13:45:32;9.38;;;1.65;;
49015;SDS011;34830;44.064;12.566;2023-03-12T13:48:00;9.68;;;1.95;;
49015;SDS011;34830;44.064;12.566;2023-03-12T13:50:28;7.55;;;2.47;;
49015;SDS011;34830;44.064;12.566;2023-03-12T13:52:59;5.97;;;1.50;;
49015;SDS011;34830;44.064;12.566;2023-03-12T13:55:35;6.28;;;1.45;;
49015;SDS011;34830;44.064;12.566;2023-03-12T14:03:15;7.25;;;1.50;;
49015;SDS011;34830;44.064;12.566;2023-03-12T14:17:24;8.10;;;1.63;;
49015;SDS011;34830;44.064;12.566;2023-03-12T14:22:32;11.52;;;1.50;;
49015;SDS011;34830;44.064;12.566;2023-03-12T14:25:02;7.25;;;1.40;;
49015;SDS011;34830;44.064;12.566;2023-03-12T14:27:31;7.75;;;1.10;;
49015;SDS011;34830;44.064;12.566;2023-03-12T14:32:39;5.55;;;1.40;;
49015;SDS011;34830;44.064;12.566;2023-03-12T14:35:19;5.85;;;1.30;;
49015;SDS011;34830;44.064;12.566;2023-03-12T14:38:14;8.23;;;1.60;;
49015;SDS011;34830;44.064;12.566;2023-03-12T14:40:50;6.93;;;1.45;;
49015;SDS011;34830;44.064;12.566;2023-03-12T14:43:25;8.50;;;1.55;;
49015;SDS011;34830;44.064;12.566;2023-03-12T14:45:53;9.95;;;2.58;;
49015;SDS011;34830;44.064;12.566;2023-03-12T14:48:30;10.45;;;1.83;;
49015;SDS011;34830;44.064;12.566;2023-03-12T14:50:58;6.28;;;1.40;;
49015;SDS011;34830;44.064;12.566;2023-03-12T14:53:27;8.52;;;1.58;;
49015;SDS011;34830;44.064;12.566;2023-03-12T14:58:25;14.15;;;1.92;;
49015;SDS011;34830;44.064;12.566;2023-03-12T15:01:04;7.25;;;1.30;;
49015;SDS011;34830;44.064;12.566;2023-03-12T15:03:40;6.30;;;1.48;;
49015;SDS011;34830;44.064;12.566;2023-03-12T15:06:17;6.07;;;1.13;;
49015;SDS011;34830;44.064;12.566;2023-03-12T15:08:47;11.77;;;1.08;;
49015;SDS011;34830;44.064;12.566;2023-03-12T15:11:18;4.38;;;1.42;;
49015;SDS011;34830;44.064;12.566;2023-03-12T15:16:11;7.10;;;1.60;;
49015;SDS011;34830;44.064;12.566;2023-03-12T15:18:38;12.60;;;1.67;;
49015;SDS011;34830;44.064;12.566;2023-03-12T15:21:04;6.35;;;1.58;;
49015;SDS011;34830;44.064;12.566;2023-03-12T15:23:31;8.98;;;1.50;;
49015;SDS011;34830;44.064;12.566;2023-03-12T15:28:38;10.60;;;1.98;;
49015;SDS011;34830;44.064;12.566;2023-03-12T15:31:09;10.23;;;1.80;;
49015;SDS011;34830;44.064;12.566;2023-03-12T15:33:40;7.45;;;1.63;;
49015;SDS011;34830;44.064;12.566;2023-03-12T15:38:43;6.93;;;1.95;;
49015;SDS011;34830;44.064;12.566;2023-03-12T15:41:15;10.35;;;1.48;;
49015;SDS011;34830;44.064;12.566;2023-03-12T15:43:43;6.03;;;1.33;;
49015;SDS011;34830;44.064;12.566;2023-03-12T15:46:15;9.20;;;2.00;;
49015;SDS011;34830;44.064;12.566;2023-03-12T15:48:44;7.03;;;1.70;;
49015;SDS011;34830;44.064;12.566;2023-03-12T15:51:13;7.28;;;1.60;;
49015;SDS011;34830;44.064;12.566;2023-03-12T15:53:41;8.18;;;1.40;;
49015;SDS011;34830;44.064;12.566;2023-03-12T15:58:38;7.40;;;2.08;;
49015;SDS011;34830;44.064;12.566;2023-03-12T16:01:06;6.90;;;1.63;;
49015;SDS011;34830;44.064;12.566;2023-03-12T16:03:42;8.00;;;1.30;;
49015;SDS011;34830;44.064;12.566;2023-03-12T16:06:11;17.45;;;3.50;;
49015;SDS011;34830;44.064;12.566;2023-03-12T16:08:43;8.07;;;1.50;;
49015;SDS011;34830;44.064;12.566;2023-03-12T16:11:13;7.57;;;1.33;;
49015;SDS011;34830;44.064;12.566;2023-03-12T16:13:41;9.25;;;1.88;;
49015;SDS011;34830;44.064;12.566;2023-03-12T16:16:11;5.47;;;1.63;;
49015;SDS011;34830;44.064;12.566;2023-03-12T16:18:38;7.50;;;1.23;;
49015;SDS011;34830;44.064;12.566;2023-03-12T16:21:04;6.32;;;1.42;;
49015;SDS011;34830;44.064;12.566;2023-03-12T16:23:31;7.30;;;1.50;;
49015;SDS011;34830;44.064;12.566;2023-03-12T16:25:57;7.97;;;1.30;;
49015;SDS011;34830;44.064;12.566;2023-03-12T16:28:23;7.82;;;1.40;;
49015;SDS011;34830;44.064;12.566;2023-03-12T16:30:50;6.53;;;1.50;;
49015;SDS011;34830;44.064;12.566;2023-03-12T16:33:17;7.80;;;2.20;;
49015;SDS011;34830;44.064;12.566;2023-03-12T16:35:45;6.97;;;1.30;;
49015;SDS011;34830;44.064;12.566;2023-03-12T16:38:11;5.63;;;1.30;;
49015;SDS011;34830;44.064;12.566;2023-03-12T16:40:38;7.22;;;1.40;;
49015;SDS011;34830;44.064;12.566;2023-03-12T16:43:06;8.55;;;1.52;;
49015;SDS011;34830;44.064;12.566;2023-03-12T16:45:35;6.25;;;1.80;;
49015;SDS011;34830;44.064;12.566;2023-03-12T16:48:03;7.68;;;1.33;;
49015;SDS011;34830;44.064;12.566;2023-03-12T16:50:30;7.60;;;1.58;;
49015;SDS011;34830;44.064;12.566;2023-03-12T16:52:57;9.10;;;1.88;;
49015;SDS011;34830;44.064;12.566;2023-03-12T16:55:27;5.90;;;1.20;;
49015;SDS011;34830;44.064;12.566;2023-03-12T17:00:29;3.25;;;1.25;;
49015;SDS011;34830;44.064;12.566;2023-03-12T17:02:56;5.78;;;1.33;;
49015;SDS011;34830;44.064;12.566;2023-03-12T17:05:23;5.50;;;1.58;;
49015;SDS011;34830;44.064;12.566;2023-03-12T17:07:49;8.55;;;1.52;;
49015;SDS011;34830;44.064;12.566;2023-03-12T17:10:15;8.70;;;1.48;;
49015;SDS011;34830;44.064;12.566;2023-03-12T17:12:42;11.02;;;1.85;;
49015;SDS011;34830;44.064;12.566;2023-03-12T17:15:18;8.27;;;2.13;;
49015;SDS011;34830;44.064;12.566;2023-03-12T17:17:51;9.85;;;1.55;;